createdAt,value
2023-05-11T00:00:43.648Z,12.61
2023-05-11T00:01:43.676Z,12.62
2023-05-11T00:02:43.756Z,12.52
2023-05-11T00:03:43.765Z,12.58
2023-05-11T00:04:43.872Z,12.59
2023-05-11T00:05:43.808Z,12.69
2023-05-11T00:06:43.810Z,12.62
2023-05-11T00:07:43.839Z,12.63
2023-05-11T00:08:43.866Z,12.56
2023-05-11T00:09:43.901Z,12.58
2023-05-11T00:10:43.919Z,12.55
2023-05-11T00:11:43.949Z,12.47
2023-05-11T00:12:43.975Z,12.44
2023-05-11T00:13:44.005Z,12.38
2023-05-11T00:14:44.030Z,12.37
2023-05-11T00:15:44.090Z,12.33
2023-05-11T00:16:44.085Z,12.40
2023-05-11T00:17:44.148Z,12.22
2023-05-11T00:18:44.243Z,12.22
2023-05-11T00:19:44.167Z,12.18
2023-05-11T00:20:44.193Z,12.10
2023-05-11T00:21:44.241Z,12.10
2023-05-11T00:22:44.939Z,12.13
2023-05-11T00:23:44.277Z,12.07
2023-05-11T00:24:44.311Z,12.05
2023-05-11T00:25:44.336Z,12.13
2023-05-11T00:26:44.363Z,12.03
2023-05-11T00:27:44.385Z,12.07
2023-05-11T00:28:44.411Z,12.13
2023-05-11T00:29:44.438Z,12.15
2023-05-11T00:30:44.489Z,12.10
2023-05-11T00:31:44.528Z,12.10
2023-05-11T00:32:44.571Z,12.04
2023-05-11T00:33:44.553Z,12.07
2023-05-11T00:34:44.576Z,12.08
2023-05-11T00:35:44.600Z,12.03
2023-05-11T00:36:44.625Z,12.03
2023-05-11T00:37:44.671Z,12.00
2023-05-11T00:38:44.685Z,12.11
2023-05-11T00:39:44.712Z,12.00
2023-05-11T00:40:44.731Z,12.00
2023-05-11T00:41:44.762Z,12.04
2023-05-11T00:42:44.784Z,12.05
2023-05-11T00:43:44.813Z,12.05
2023-05-11T00:44:44.840Z,12.10
2023-05-11T00:45:44.868Z,12.15
2023-05-11T00:46:44.912Z,12.11
2023-05-11T00:47:44.957Z,12.04
2023-05-11T00:48:44.948Z,12.10
2023-05-11T00:49:44.972Z,12.11
2023-05-11T00:50:45.023Z,12.04
2023-05-11T00:51:45.081Z,12.08
2023-05-11T00:52:45.059Z,12.07
2023-05-11T00:53:45.103Z,12.23
2023-05-11T00:54:45.108Z,12.25
2023-05-11T00:55:45.134Z,12.28
2023-05-11T00:56:45.164Z,12.18
2023-05-11T00:57:45.197Z,12.28
2023-05-11T00:58:45.214Z,12.23
2023-05-11T00:59:45.243Z,12.25
2023-05-11T01:00:45.291Z,12.23
2023-05-11T01:01:45.323Z,12.31
2023-05-11T01:02:45.583Z,12.26
2023-05-11T01:03:45.353Z,12.29
2023-05-11T01:04:45.377Z,12.26
2023-05-11T01:05:45.408Z,12.26
2023-05-11T01:06:45.433Z,12.34
2023-05-11T01:07:45.467Z,12.26
2023-05-11T01:08:45.489Z,12.28
2023-05-11T01:09:45.539Z,12.28
2023-05-11T01:10:45.541Z,12.34
2023-05-11T01:11:45.681Z,12.26
2023-05-11T01:12:45.605Z,12.38
2023-05-11T01:13:45.627Z,12.20
2023-05-11T01:14:45.654Z,12.26
2023-05-11T01:15:45.681Z,12.31
2023-05-11T01:16:45.729Z,12.29
2023-05-11T01:17:45.798Z,12.23
2023-05-11T01:18:45.805Z,12.33
2023-05-11T01:19:45.791Z,12.19
2023-05-11T01:20:45.819Z,12.13
2023-05-11T01:21:45.844Z,12.04
2023-05-11T01:22:45.872Z,12.07
2023-05-11T01:23:45.897Z,11.94
2023-05-11T01:24:45.927Z,11.89
2023-05-11T01:25:45.976Z,11.81
2023-05-11T01:26:45.985Z,11.84
2023-05-11T01:27:46.010Z,11.84
2023-05-11T01:28:46.034Z,11.76
2023-05-11T01:29:46.076Z,11.75
2023-05-11T01:30:46.090Z,11.73
2023-05-11T01:31:46.150Z,11.75
2023-05-11T01:32:46.216Z,11.75
2023-05-11T01:33:46.173Z,11.76
2023-05-11T01:34:46.196Z,11.71
2023-05-11T01:35:46.239Z,11.71
2023-05-11T01:36:46.248Z,11.67
2023-05-11T01:37:46.278Z,11.68
2023-05-11T01:38:46.313Z,11.63
2023-05-11T01:39:46.330Z,11.60
2023-05-11T01:40:46.355Z,11.59
2023-05-11T01:41:46.409Z,11.63
2023-05-11T01:42:46.411Z,11.52
2023-05-11T01:43:46.454Z,11.56
2023-05-11T01:44:46.462Z,11.59
2023-05-11T01:45:47.800Z,11.67
2023-05-11T01:46:46.516Z,11.52
2023-05-11T01:47:46.602Z,11.56
2023-05-11T01:48:46.568Z,11.59
2023-05-11T01:49:46.593Z,11.63
2023-05-11T01:50:46.621Z,11.60
2023-05-11T01:51:46.650Z,11.64
2023-05-11T01:52:46.674Z,11.57
2023-05-11T01:53:46.708Z,11.56
2023-05-11T01:54:46.728Z,11.53
2023-05-11T01:55:46.757Z,11.56
2023-05-11T01:56:46.785Z,11.59
2023-05-11T01:57:46.837Z,11.57
2023-05-11T01:58:46.836Z,11.63
2023-05-11T01:59:46.864Z,11.60
2023-05-11T02:00:46.891Z,11.59
2023-05-11T02:01:46.935Z,11.66
2023-05-11T02:02:46.973Z,11.64
2023-05-11T02:03:46.984Z,11.64
2023-05-11T02:04:46.997Z,11.53
2023-05-11T02:05:47.025Z,11.63
2023-05-11T02:06:47.052Z,11.59
2023-05-11T02:07:47.080Z,11.56
2023-05-11T02:08:47.105Z,11.53
2023-05-11T02:09:47.140Z,11.56
2023-05-11T02:10:47.161Z,11.52
2023-05-11T02:11:47.186Z,11.46
2023-05-11T02:12:47.211Z,11.64
2023-05-11T02:13:47.263Z,11.68
2023-05-11T02:14:47.264Z,11.59
2023-05-11T02:15:47.378Z,11.59
2023-05-11T02:16:47.320Z,11.61
2023-05-11T02:17:47.380Z,11.68
2023-05-11T02:18:47.410Z,11.64
2023-05-11T02:19:47.404Z,11.61
2023-05-11T02:20:47.446Z,11.61
2023-05-11T02:21:47.452Z,11.61
2023-05-11T02:22:47.484Z,11.64
2023-05-11T02:23:47.513Z,11.64
2023-05-11T02:24:47.538Z,11.66
2023-05-11T02:25:47.579Z,11.66
2023-05-11T02:26:47.585Z,11.66
2023-05-11T02:27:47.632Z,11.75
2023-05-11T02:28:47.652Z,11.75
2023-05-11T02:29:47.689Z,11.76
2023-05-11T02:30:47.692Z,11.82
2023-05-11T02:31:47.734Z,11.84
2023-05-11T02:32:47.798Z,11.81
2023-05-11T02:33:48.887Z,11.81
2023-05-11T02:34:47.801Z,11.85
2023-05-11T02:35:47.831Z,11.85
2023-05-11T02:36:47.858Z,11.89
2023-05-11T02:37:47.897Z,11.98
2023-05-11T02:38:47.916Z,12.08
2023-05-11T02:39:47.936Z,12.07
2023-05-11T02:40:47.979Z,12.05
2023-05-11T02:41:47.996Z,12.00
2023-05-11T02:42:48.025Z,12.08
2023-05-11T02:43:48.048Z,12.04
2023-05-11T02:44:48.076Z,12.15
2023-05-11T02:45:48.120Z,12.11
2023-05-11T02:46:48.163Z,12.08
2023-05-11T02:47:48.248Z,12.15
2023-05-11T02:48:48.179Z,12.18
2023-05-11T02:49:48.207Z,12.08
2023-05-11T02:50:48.233Z,12.03
2023-05-11T02:51:48.259Z,12.25
2023-05-11T02:52:48.286Z,12.20
2023-05-11T02:53:48.313Z,12.23
2023-05-11T02:54:48.341Z,12.26
2023-05-11T02:55:48.372Z,12.26
2023-05-11T02:56:48.398Z,12.26
2023-05-11T02:57:48.470Z,12.26
2023-05-11T02:58:48.461Z,12.20
2023-05-11T02:59:48.478Z,12.33
2023-05-11T03:00:48.611Z,12.20
2023-05-11T03:01:48.616Z,12.29
2023-05-11T03:02:48.671Z,12.26
2023-05-11T03:03:48.646Z,12.25
2023-05-11T03:04:48.612Z,12.25
2023-05-11T03:05:48.642Z,12.28
2023-05-11T03:06:48.665Z,12.23
2023-05-11T03:07:48.701Z,12.26
2023-05-11T03:08:48.718Z,12.28
2023-05-11T03:09:48.740Z,12.36
2023-05-11T03:10:48.764Z,12.33
2023-05-11T03:11:48.990Z,12.36
2023-05-11T03:12:48.819Z,12.40
2023-05-11T03:13:48.857Z,12.45
2023-05-11T03:14:48.875Z,12.33
2023-05-11T03:15:48.899Z,12.40
2023-05-11T03:16:48.968Z,12.38
2023-05-11T03:17:49.051Z,12.36
2023-05-11T03:18:49.031Z,12.33
2023-05-11T03:19:49.025Z,12.26
2023-05-11T03:20:49.032Z,12.25
2023-05-11T03:21:49.058Z,12.22
2023-05-11T03:22:49.084Z,12.28
2023-05-11T03:23:49.111Z,12.26
2023-05-11T03:24:49.147Z,12.31
2023-05-11T03:25:49.166Z,12.20
2023-05-11T03:26:49.204Z,12.31
2023-05-11T03:27:49.218Z,12.29
2023-05-11T03:28:49.249Z,12.34
2023-05-11T03:29:49.275Z,12.37
2023-05-11T03:30:49.311Z,12.23
2023-05-11T03:31:51.099Z,12.37
2023-05-11T03:32:49.392Z,12.34
2023-05-11T03:33:49.413Z,12.31
2023-05-11T03:34:49.415Z,12.26
2023-05-11T03:35:49.441Z,12.26
2023-05-11T03:36:49.465Z,12.33
2023-05-11T03:37:49.494Z,12.33
2023-05-11T03:38:49.524Z,12.37
2023-05-11T03:39:49.548Z,12.40
2023-05-11T03:40:49.575Z,12.47
2023-05-11T03:41:49.607Z,12.47
2023-05-11T03:42:49.632Z,12.43
2023-05-11T03:43:51.511Z,12.45
2023-05-11T03:44:49.693Z,12.43
2023-05-11T03:45:49.729Z,12.48
2023-05-11T03:46:49.744Z,12.43
2023-05-11T03:47:49.834Z,12.40
2023-05-11T03:48:49.812Z,12.45
2023-05-11T03:49:49.845Z,12.40
2023-05-11T03:50:49.849Z,12.41
2023-05-11T03:51:49.877Z,12.44
2023-05-11T03:52:49.905Z,12.45
2023-05-11T03:53:49.928Z,12.45
2023-05-11T03:54:49.958Z,12.45
2023-05-11T03:55:50.027Z,12.45
2023-05-11T03:56:50.011Z,12.51
2023-05-11T03:57:50.036Z,12.40
2023-05-11T03:58:50.068Z,12.33
2023-05-11T03:59:50.092Z,12.40
2023-05-11T04:00:50.130Z,12.40
2023-05-11T04:01:50.145Z,12.40
2023-05-11T04:02:50.242Z,12.33
2023-05-11T04:03:50.343Z,12.33
2023-05-11T04:04:50.256Z,12.38
2023-05-11T04:05:50.278Z,12.51
2023-05-11T04:06:50.279Z,12.40
2023-05-11T04:07:50.308Z,12.41
2023-05-11T04:08:50.336Z,12.47
2023-05-11T04:09:50.372Z,12.47
2023-05-11T04:10:50.391Z,12.45
2023-05-11T04:11:50.416Z,12.48
2023-05-11T04:12:50.456Z,12.47
2023-05-11T04:13:50.481Z,12.55
2023-05-11T04:14:50.498Z,12.56
2023-05-11T04:15:52.278Z,12.48
2023-05-11T04:16:50.561Z,12.56
2023-05-11T04:17:50.609Z,12.55
2023-05-11T04:18:50.638Z,12.53
2023-05-11T04:19:50.631Z,12.45
2023-05-11T04:20:50.681Z,12.56
2023-05-11T04:21:50.717Z,12.52
2023-05-11T04:22:50.720Z,12.45
2023-05-11T04:23:50.756Z,12.51
2023-05-11T04:24:50.772Z,12.52
2023-05-11T04:25:50.799Z,12.56
2023-05-11T04:26:50.828Z,12.58
2023-05-11T04:27:50.858Z,12.58
2023-05-11T04:28:50.895Z,12.58
2023-05-11T04:29:50.910Z,12.58
2023-05-11T04:30:50.938Z,12.56
2023-05-11T04:31:51.004Z,12.63
2023-05-11T04:32:51.022Z,12.59
2023-05-11T04:33:51.016Z,12.58
2023-05-11T04:34:51.057Z,12.63
2023-05-11T04:35:51.072Z,12.58
2023-05-11T04:36:51.102Z,12.63
2023-05-11T04:37:51.146Z,12.65
2023-05-11T04:38:51.158Z,12.61
2023-05-11T04:39:51.185Z,12.69
2023-05-11T04:40:51.211Z,12.71
2023-05-11T04:41:51.240Z,12.73
2023-05-11T04:42:51.266Z,12.70
2023-05-11T04:43:51.292Z,12.71
2023-05-11T04:44:51.321Z,12.74
2023-05-11T04:45:51.345Z,12.71
2023-05-11T04:46:51.394Z,12.71
2023-05-11T04:47:51.425Z,12.65
2023-05-11T04:48:51.449Z,12.65
2023-05-11T04:49:51.458Z,12.69
2023-05-11T04:50:51.490Z,12.66
2023-05-11T04:51:51.517Z,12.73
2023-05-11T04:52:51.549Z,12.77
2023-05-11T04:53:51.586Z,12.74
2023-05-11T04:54:51.597Z,12.80
2023-05-11T04:55:51.632Z,12.80
2023-05-11T04:56:51.652Z,12.89
2023-05-11T04:57:51.679Z,12.92
2023-05-11T04:58:51.701Z,12.89
2023-05-11T04:59:51.758Z,12.92
2023-05-11T05:00:51.785Z,12.88
2023-05-11T05:01:51.789Z,12.88
2023-05-11T05:02:51.877Z,12.88
2023-05-11T05:03:51.885Z,12.83
2023-05-11T05:04:51.875Z,12.89
2023-05-11T05:05:51.900Z,12.84
2023-05-11T05:06:51.927Z,12.84
2023-05-11T05:07:51.960Z,12.86
2023-05-11T05:08:51.988Z,12.95
2023-05-11T05:09:52.033Z,12.89
2023-05-11T05:10:52.038Z,12.88
2023-05-11T05:11:52.070Z,12.89
2023-05-11T05:12:52.093Z,12.89
2023-05-11T05:13:52.124Z,13.03
2023-05-11T05:14:52.150Z,13.11
2023-05-11T05:15:52.178Z,13.07
2023-05-11T05:16:52.262Z,13.06
2023-05-11T05:17:52.282Z,13.09
2023-05-11T05:18:52.290Z,13.03
2023-05-11T05:19:52.289Z,13.14
2023-05-11T05:20:52.331Z,13.13
2023-05-11T05:21:52.350Z,13.07
2023-05-11T05:22:52.373Z,13.10
2023-05-11T05:23:52.403Z,13.07
2023-05-11T05:24:52.444Z,13.16
2023-05-11T05:25:52.498Z,13.07
2023-05-11T05:26:52.503Z,13.20
2023-05-11T05:27:52.513Z,13.10
2023-05-11T05:28:52.546Z,13.19
2023-05-11T05:29:52.566Z,13.20
2023-05-11T05:30:52.645Z,13.32
2023-05-11T05:31:52.639Z,13.29
2023-05-11T05:32:52.813Z,13.25
2023-05-11T05:33:52.689Z,13.39
2023-05-11T05:34:52.723Z,13.36
2023-05-11T05:35:52.734Z,13.32
2023-05-11T05:36:52.768Z,13.27
2023-05-11T05:37:52.795Z,13.28
2023-05-11T05:38:52.822Z,13.37
2023-05-11T05:39:52.867Z,13.28
2023-05-11T05:40:52.877Z,13.35
2023-05-11T05:41:52.924Z,13.27
2023-05-11T05:42:52.934Z,13.39
2023-05-11T05:43:52.963Z,13.48
2023-05-11T05:44:52.998Z,13.48
2023-05-11T05:46:45.748Z,13.50
2023-05-11T05:47:45.640Z,13.50
2023-05-11T05:48:45.647Z,13.62
2023-05-11T05:49:45.688Z,13.58
2023-05-11T05:50:45.698Z,13.66
2023-05-11T05:51:45.729Z,13.76
2023-05-11T05:52:45.757Z,13.79
2023-05-11T05:53:45.783Z,13.70
2023-05-11T05:54:45.812Z,13.78
2023-05-11T05:55:45.903Z,13.73
2023-05-11T05:56:45.870Z,13.90
2023-05-11T05:57:45.928Z,13.90
2023-05-11T05:58:45.924Z,13.86
2023-05-11T05:59:45.954Z,13.84
2023-05-11T06:00:46.030Z,13.86
2023-05-11T06:01:46.014Z,13.72
2023-05-11T06:02:46.099Z,13.75
2023-05-11T06:03:46.214Z,13.75
2023-05-11T06:04:46.113Z,13.73
2023-05-11T06:06:38.874Z,13.65
2023-05-11T06:07:38.919Z,13.69
2023-05-11T06:08:38.933Z,13.70
2023-05-11T06:09:39.354Z,13.63
2023-05-11T06:10:39.095Z,13.63
2023-05-11T06:11:39.032Z,13.54
2023-05-11T06:12:39.045Z,13.54
2023-05-11T06:13:39.111Z,13.50
2023-05-11T06:14:39.098Z,13.62
2023-05-11T06:15:41.077Z,13.58
2023-05-11T06:16:39.316Z,13.57
2023-05-11T06:17:39.204Z,13.60
2023-05-11T06:18:39.290Z,13.57
2023-05-11T06:19:39.249Z,13.69
2023-05-11T06:20:39.280Z,13.81
2023-05-11T06:21:39.301Z,13.79
2023-05-11T06:22:39.331Z,13.91
2023-05-11T06:23:39.359Z,13.95
2023-05-11T06:24:39.388Z,14.03
2023-05-11T06:25:39.445Z,14.03
2023-05-11T06:26:40.865Z,14.03
2023-05-11T06:27:39.472Z,14.03
2023-05-11T06:28:39.507Z,14.11
2023-05-11T06:29:39.551Z,14.03
2023-05-11T06:30:39.557Z,14.20
2023-05-11T06:31:39.646Z,14.15
2023-05-11T06:32:39.673Z,14.31
2023-05-11T06:33:39.648Z,14.39
2023-05-11T06:34:39.674Z,14.30
2023-05-11T06:35:39.702Z,14.23
2023-05-11T06:36:39.736Z,14.31
2023-05-11T06:37:39.761Z,14.19
2023-05-11T06:38:39.787Z,14.26
2023-05-11T06:39:39.820Z,14.27
2023-05-11T06:40:39.850Z,14.31
2023-05-11T06:41:39.878Z,14.20
2023-05-11T06:42:39.908Z,14.13
2023-05-11T06:43:39.933Z,14.19
2023-05-11T06:44:40.002Z,14.24
2023-05-11T06:45:40.043Z,14.23
2023-05-11T06:46:40.025Z,14.11
2023-05-11T06:47:40.092Z,14.13
2023-05-11T06:48:40.081Z,14.19
2023-05-11T06:49:40.132Z,14.23
2023-05-11T06:50:40.139Z,14.16
2023-05-11T06:51:40.166Z,14.13
2023-05-11T06:52:40.209Z,14.28
2023-05-11T06:53:40.238Z,14.13
2023-05-11T06:54:40.270Z,14.27
2023-05-11T06:55:40.319Z,14.27
2023-05-11T06:56:40.524Z,14.34
2023-05-11T06:57:40.557Z,14.41
2023-05-11T06:58:40.397Z,14.48
2023-05-11T06:59:40.480Z,14.64
2023-05-11T07:00:40.435Z,14.66
2023-05-11T07:01:40.628Z,14.85
2023-05-11T07:02:40.545Z,14.93
2023-05-11T07:03:40.523Z,14.87
2023-05-11T07:04:40.574Z,15.05
2023-05-11T07:05:40.592Z,15.18
2023-05-11T07:06:40.611Z,15.34
2023-05-11T07:07:40.667Z,15.53
2023-05-11T07:08:40.677Z,15.73
2023-05-11T07:09:42.113Z,15.81
2023-05-11T07:13:06.592Z,16.08
2023-05-11T07:14:49.183Z,16.00
2023-05-11T07:15:49.219Z,15.99
2023-05-11T07:16:49.298Z,15.98
2023-05-11T07:17:49.294Z,15.89
2023-05-11T07:18:49.331Z,15.89
2023-05-11T07:19:49.342Z,15.86
2023-05-11T07:20:49.363Z,15.93
2023-05-11T07:21:49.386Z,15.89
2023-05-11T07:22:49.410Z,15.92
2023-05-11T07:23:49.484Z,15.89
2023-05-11T07:24:49.699Z,15.91
2023-05-11T07:25:49.728Z,15.88
2023-05-11T07:28:50.211Z,16.06
2023-05-11T07:29:50.859Z,16.00
2023-05-11T07:30:49.880Z,16.17
2023-05-11T07:31:50.617Z,16.21
2023-05-11T07:32:50.281Z,16.33
2023-05-11T07:34:49.988Z,16.49
2023-05-11T07:35:50.110Z,16.52
2023-05-11T07:36:49.843Z,16.48
2023-05-11T07:37:49.877Z,16.67
2023-05-11T07:38:49.908Z,16.76
2023-05-11T07:39:50.349Z,16.74
2023-05-11T07:40:50.287Z,16.91
2023-05-11T07:41:50.715Z,16.99
2023-05-11T07:42:50.054Z,17.06
2023-05-11T07:43:50.071Z,17.13
2023-05-11T07:45:50.646Z,17.69
2023-05-11T07:46:50.264Z,17.95
2023-05-11T07:47:50.235Z,17.90
2023-05-11T07:48:57.394Z,18.17
2023-05-11T07:49:50.227Z,18.36
2023-05-11T07:50:50.264Z,18.71
2023-05-11T07:51:50.289Z,19.05
2023-05-11T07:52:50.329Z,18.97
2023-05-11T07:53:50.359Z,19.02
2023-05-11T07:54:50.384Z,18.91
2023-05-11T07:55:50.418Z,18.74
2023-05-11T07:56:50.452Z,18.49
2023-05-11T07:57:51.485Z,18.17
2023-05-11T07:58:50.516Z,17.99
2023-05-11T07:59:50.537Z,17.98
2023-05-11T08:00:50.576Z,17.98
2023-05-11T08:01:50.615Z,17.95
2023-05-11T08:02:50.776Z,17.88
2023-05-11T08:03:50.663Z,17.76
2023-05-11T08:04:50.716Z,17.60
2023-05-11T08:05:50.759Z,17.50
2023-05-11T08:06:50.766Z,17.50
2023-05-11T08:07:50.808Z,17.39
2023-05-11T08:08:50.823Z,17.38
2023-05-11T08:09:50.851Z,17.36
2023-05-11T08:10:50.879Z,17.20
2023-05-11T08:11:50.908Z,17.12
2023-05-11T08:12:50.952Z,17.13
2023-05-11T08:13:50.975Z,17.09
2023-05-11T08:15:43.967Z,16.90
2023-05-11T08:16:47.335Z,16.84
2023-05-11T08:17:44.036Z,16.87
2023-05-11T08:18:44.105Z,16.95
2023-05-11T08:19:44.155Z,16.94
2023-05-11T08:20:44.114Z,17.18
2023-05-11T08:21:44.123Z,17.12
2023-05-11T08:22:44.156Z,17.27
2023-05-11T08:23:45.204Z,17.35
2023-05-11T08:24:44.219Z,17.28
2023-05-11T08:25:44.250Z,17.09
2023-05-11T08:26:44.603Z,17.25
2023-05-11T08:27:44.325Z,17.24
2023-05-11T08:28:44.347Z,17.35
2023-05-11T08:29:44.371Z,17.38
2023-05-11T08:30:44.725Z,17.49
2023-05-11T08:31:44.479Z,17.69
2023-05-11T08:33:44.675Z,17.88
2023-05-11T08:34:44.612Z,17.95
2023-05-11T08:35:44.559Z,17.99
2023-05-11T08:36:44.612Z,18.08
2023-05-11T08:37:44.619Z,18.17
2023-05-11T08:38:44.655Z,18.16
2023-05-11T08:39:47.589Z,18.08
2023-05-11T08:40:44.714Z,18.06
2023-05-11T08:41:44.743Z,18.20
2023-05-11T08:42:44.782Z,18.32
2023-05-11T08:43:44.804Z,18.27
2023-05-11T08:44:44.848Z,18.34
2023-05-11T08:45:44.887Z,18.50
2023-05-11T08:46:44.900Z,18.60
2023-05-11T08:47:44.998Z,18.84
2023-05-11T08:48:45.018Z,19.07
2023-05-11T08:49:44.992Z,19.25
2023-05-11T08:50:45.026Z,19.30
2023-05-11T08:52:27.639Z,19.23
2023-05-11T08:53:27.638Z,19.27
2023-05-11T08:54:27.666Z,19.28
2023-05-11T08:55:27.706Z,19.15
2023-05-11T08:56:27.727Z,19.16
2023-05-11T08:57:27.966Z,18.96
2023-05-11T08:58:27.800Z,18.68
2023-05-11T08:59:27.840Z,18.49
2023-05-11T09:00:27.871Z,18.51
2023-05-11T09:01:27.919Z,18.34
2023-05-11T09:02:28.021Z,18.27
2023-05-11T09:03:27.976Z,18.29
2023-05-11T09:04:27.993Z,18.19
2023-05-11T09:05:28.059Z,18.19
2023-05-11T09:06:28.051Z,18.16
2023-05-11T09:07:28.088Z,17.99
2023-05-11T09:08:28.137Z,17.96
2023-05-11T09:09:28.156Z,17.86
2023-05-11T09:10:28.181Z,17.99
2023-05-11T09:11:28.208Z,18.05
2023-05-11T09:13:28.279Z,18.27
2023-05-11T09:14:28.312Z,18.35
2023-05-11T09:15:28.326Z,18.31
2023-05-11T09:16:36.877Z,18.36
2023-05-11T09:17:28.443Z,18.24
2023-05-11T09:18:28.472Z,18.14
2023-05-11T09:19:28.467Z,18.20
2023-05-11T09:20:28.502Z,18.26
2023-05-11T09:21:28.530Z,18.31
2023-05-11T09:22:31.015Z,18.32
2023-05-11T09:23:28.579Z,18.32
2023-05-11T09:24:28.635Z,18.35
2023-05-11T09:25:28.650Z,18.36
2023-05-11T09:26:29.089Z,18.29
2023-05-11T09:27:28.708Z,18.35
2023-05-11T09:29:30.402Z,18.29
2023-05-11T09:30:28.817Z,18.23
2023-05-11T09:31:28.961Z,18.23
2023-05-11T09:32:28.890Z,18.31
2023-05-11T09:33:28.903Z,18.23
2023-05-11T09:34:28.946Z,18.23
2023-05-11T09:35:29.380Z,18.29
2023-05-11T09:36:29.002Z,18.32
2023-05-11T09:37:29.019Z,18.26
2023-05-11T09:38:29.068Z,18.20
2023-05-11T09:41:34.900Z,18.03
2023-05-11T09:43:29.222Z,18.01
2023-05-11T09:44:29.235Z,18.05
2023-05-11T09:45:29.264Z,18.08
2023-05-11T09:46:29.348Z,18.08
2023-05-11T09:47:29.783Z,18.13
2023-05-11T09:48:29.374Z,18.13
2023-05-11T09:49:29.385Z,18.17
2023-05-11T09:50:29.417Z,18.19
2023-05-11T09:51:29.472Z,18.05
2023-05-11T09:52:29.564Z,18.10
2023-05-11T09:53:29.510Z,18.21
2023-05-11T09:54:29.551Z,18.24
2023-05-11T09:55:29.890Z,18.38
2023-05-11T09:56:29.927Z,18.35
2023-05-11T09:57:29.686Z,18.44
2023-05-11T09:58:30.392Z,18.38
2023-05-11T09:59:29.718Z,18.35
2023-05-11T10:00:29.766Z,18.39
2023-05-11T10:01:29.812Z,18.21
2023-05-11T10:02:30.031Z,18.32
2023-05-11T10:03:30.186Z,18.42
2023-05-11T10:04:30.755Z,18.49
2023-05-11T10:10:42.348Z,19.09
2023-05-11T10:11:42.403Z,19.20
2023-05-11T10:12:42.411Z,19.35
2023-05-11T10:13:42.448Z,19.27
2023-05-11T10:14:42.473Z,19.31
2023-05-11T10:15:42.609Z,19.31
2023-05-11T10:16:42.543Z,19.38
2023-05-11T10:17:42.582Z,19.40
2023-05-11T10:18:42.631Z,19.49
2023-05-11T10:19:42.631Z,19.50
2023-05-11T10:20:42.671Z,19.38
2023-05-11T10:21:42.709Z,19.13
2023-05-11T10:22:42.727Z,19.19
2023-05-11T10:23:42.778Z,19.10
2023-05-11T10:24:42.794Z,19.13
2023-05-11T10:25:42.820Z,19.15
2023-05-11T10:26:42.857Z,19.12
2023-05-11T10:27:42.914Z,19.06
2023-05-11T10:28:42.916Z,18.82
2023-05-11T10:29:42.946Z,18.81
2023-05-11T10:30:42.982Z,18.90
2023-05-11T10:31:43.058Z,19.05
2023-05-11T10:32:43.098Z,19.02
2023-05-11T10:34:43.100Z,19.34
2023-05-11T10:35:43.142Z,19.38
2023-05-11T10:36:43.178Z,19.50
2023-05-11T10:37:43.424Z,19.47
2023-05-11T10:38:43.231Z,19.37
2023-05-11T10:39:43.258Z,19.42
2023-05-11T10:40:43.292Z,19.46
2023-05-11T10:41:43.336Z,19.19
2023-05-11T10:42:43.371Z,19.34
2023-05-11T10:44:43.440Z,19.37
2023-05-11T10:45:43.515Z,19.49
2023-05-11T10:46:43.480Z,19.57
2023-05-11T10:47:43.566Z,19.70
2023-05-11T10:48:43.550Z,19.90
2023-05-11T10:49:43.578Z,19.97
2023-05-11T10:50:43.636Z,20.01
2023-05-11T10:51:43.644Z,19.93
2023-05-11T10:52:43.674Z,19.92
2023-05-11T10:53:43.703Z,19.87
2023-05-11T10:54:43.732Z,19.61
2023-05-11T10:55:45.488Z,19.63
2023-05-11T10:56:43.796Z,19.49
2023-05-11T10:57:43.828Z,19.57
2023-05-11T10:58:43.960Z,19.60
2023-05-11T10:59:43.897Z,19.67
2023-05-11T11:00:44.007Z,19.86
2023-05-11T11:01:43.991Z,20.04
2023-05-11T11:02:44.014Z,20.15
2023-05-11T11:04:28.173Z,20.48
2023-05-11T11:05:26.621Z,20.38
2023-05-11T11:06:26.640Z,20.25
2023-05-11T11:07:26.675Z,20.58
2023-05-11T11:09:26.747Z,20.54
2023-05-11T11:10:26.771Z,20.37
2023-05-11T11:11:26.793Z,20.15
2023-05-11T11:12:26.842Z,20.04
2023-05-11T11:13:27.060Z,19.86
2023-05-11T11:14:26.890Z,19.89
2023-05-11T11:15:26.923Z,19.95
2023-05-11T11:16:27.016Z,20.04
2023-05-11T11:17:27.041Z,19.87
2023-05-11T11:18:27.270Z,20.05
2023-05-11T11:19:27.064Z,20.11
2023-05-11T11:20:27.097Z,20.29
2023-05-11T11:21:27.128Z,20.29
2023-05-11T11:22:27.567Z,20.30
2023-05-11T11:23:28.197Z,20.27
2023-05-11T11:24:27.215Z,20.00
2023-05-11T11:25:27.249Z,19.90
2023-05-11T11:26:27.280Z,19.71
2023-05-11T11:27:30.140Z,19.75
2023-05-11T11:28:27.346Z,19.68
2023-05-11T11:29:27.374Z,19.68
2023-05-11T11:30:27.422Z,19.63
2023-05-11T11:31:27.486Z,19.67
2023-05-11T11:32:27.529Z,19.50
2023-05-11T11:33:27.503Z,19.56
2023-05-11T11:34:27.578Z,19.46
2023-05-11T11:35:27.567Z,19.56
2023-05-11T11:36:27.609Z,19.61
2023-05-11T11:37:27.633Z,19.70
2023-05-11T11:38:29.465Z,19.74
2023-05-11T11:39:27.712Z,19.56
2023-05-11T11:41:27.758Z,19.56
2023-05-11T11:42:27.790Z,19.57
2023-05-11T11:43:27.826Z,19.61
2023-05-11T11:44:27.866Z,19.63
2023-05-11T11:45:27.927Z,19.78
2023-05-11T11:46:27.957Z,19.72
2023-05-11T11:47:28.038Z,19.70
2023-05-11T11:48:28.297Z,19.53
2023-05-11T11:49:28.028Z,19.45
2023-05-11T11:50:28.247Z,19.45
2023-05-11T11:51:28.097Z,19.16
2023-05-11T11:52:28.312Z,19.02
2023-05-11T11:53:28.139Z,18.97
2023-05-11T11:54:28.189Z,18.93
2023-05-11T11:55:28.202Z,19.10
2023-05-11T11:56:28.238Z,19.25
2023-05-11T11:57:28.266Z,19.37
2023-05-11T11:58:28.298Z,19.49
2023-05-11T11:59:28.340Z,19.71
2023-05-11T12:00:28.362Z,19.70
2023-05-11T12:01:28.397Z,19.78
2023-05-11T12:02:28.592Z,19.86
2023-05-11T12:03:28.603Z,19.72
2023-05-11T12:04:28.706Z,19.65
2023-05-11T12:05:28.535Z,19.63
2023-05-11T12:06:28.559Z,19.67
2023-05-11T12:07:28.590Z,19.61
2023-05-11T12:08:28.611Z,19.46
2023-05-11T12:09:28.796Z,19.49
2023-05-11T12:10:28.672Z,19.49
2023-05-11T12:11:28.730Z,19.61
2023-05-11T12:12:28.760Z,19.64
2023-05-11T12:13:28.980Z,19.57
2023-05-11T12:14:28.802Z,19.56
2023-05-11T12:15:28.841Z,19.49
2023-05-11T12:16:29.133Z,19.52
2023-05-11T12:17:28.937Z,19.37
2023-05-11T12:18:29.171Z,19.45
2023-05-11T12:19:28.974Z,19.45
2023-05-11T12:20:29.008Z,19.63
2023-05-11T12:21:29.034Z,19.61
2023-05-11T12:22:29.056Z,19.64
2023-05-11T12:23:29.099Z,19.87
2023-05-11T12:24:29.115Z,19.82
2023-05-11T12:25:29.157Z,19.68
2023-05-11T12:26:29.180Z,19.56
2023-05-11T12:27:29.212Z,19.72
2023-05-11T12:28:29.560Z,19.68
2023-05-11T12:29:29.275Z,19.83
2023-05-11T12:30:29.562Z,19.68
2023-05-11T12:31:29.362Z,19.70
2023-05-11T12:32:29.511Z,19.61
2023-05-11T12:33:29.452Z,19.75
2023-05-11T12:34:29.441Z,19.68
2023-05-11T12:35:29.470Z,19.72
2023-05-11T12:36:29.530Z,19.68
2023-05-11T12:37:29.557Z,19.72
2023-05-11T12:38:29.560Z,19.68
2023-05-11T12:39:29.603Z,19.65
2023-05-11T12:40:29.623Z,19.74
2023-05-11T12:41:29.663Z,19.85
2023-05-11T12:42:29.706Z,19.87
2023-05-11T12:43:29.728Z,19.85
2023-05-11T12:44:29.958Z,19.74
2023-05-11T12:46:47.446Z,19.92
2023-05-11T12:47:47.503Z,19.92
2023-05-11T12:48:47.480Z,19.97
2023-05-11T12:49:47.516Z,19.87
2023-05-11T12:50:47.538Z,19.92
2023-05-11T12:51:47.595Z,20.10
2023-05-11T12:52:47.603Z,20.08
2023-05-11T12:53:47.634Z,20.11
2023-05-11T12:54:47.664Z,20.30
2023-05-11T12:55:47.699Z,20.37
2023-05-11T12:56:47.735Z,20.51
2023-05-11T12:57:47.763Z,20.58
2023-05-11T12:58:47.792Z,20.67
2023-05-11T12:59:47.826Z,20.67
2023-05-11T13:00:47.867Z,20.72
2023-05-11T13:01:47.928Z,20.74
2023-05-11T13:02:47.990Z,20.40
2023-05-11T13:03:48.223Z,20.35
2023-05-11T13:04:47.989Z,20.38
2023-05-11T13:05:48.012Z,20.32
2023-05-11T13:06:48.043Z,20.25
2023-05-11T13:07:48.152Z,20.29
2023-05-11T13:08:48.110Z,20.27
2023-05-11T13:09:48.141Z,20.38
2023-05-11T13:10:48.205Z,20.44
2023-05-11T13:11:48.205Z,20.42
2023-05-11T13:12:48.264Z,20.32
2023-05-11T13:13:48.362Z,20.26
2023-05-11T13:14:48.307Z,20.15
2023-05-11T13:15:48.330Z,20.04
2023-05-11T13:16:48.361Z,20.02
2023-05-11T13:17:48.425Z,20.12
2023-05-11T13:18:48.467Z,20.10
2023-05-11T13:19:48.458Z,20.20
2023-05-11T13:20:48.496Z,20.22